Time;durP1;ratioP1;P1;durP2;ratioP2;P2;SDS_P1;SDS_P2;PMS_P1;PMS_P2;Temp;Humidity;BMP_temperature;BMP_pressure;BME280_temperature;BME280_humidity;BME280_pressure;Samples;Min_cycle;Max_cycle;Signal;HPM_P1;HPM_P2
2022/01/01 00:00:06;;;;;;;0.77;0.77;;;11.90;99.90;;;;;;5076752;28;20040;-84
2022/01/01 00:02:32;;;;;;;0.63;0.63;;;11.80;99.90;;;;;;5076722;28;20048;-85
2022/01/01 00:04:58;;;;;;;1.55;0.50;;;11.80;99.90;;;;;;5093397;28;20043;-84
2022/01/01 00:07:24;;;;;;;0.52;0.50;;;11.70;99.90;;;;;;5076161;28;20113;-85
2022/01/01 00:09:49;;;;;;;1.70;1.00;;;11.70;99.90;;;;;;5093309;28;20131;-84
2022/01/01 00:12:15;;;;;;;3.95;1.90;;;11.70;99.90;;;;;;5076571;28;20055;-85
2022/01/01 00:14:41;;;;;;;0.95;0.85;;;11.60;99.90;;;;;;5094221;28;20040;-85
2022/01/01 00:17:08;;;;;;;5.47;3.03;;;11.60;99.90;;;;;;5076202;28;20492;-85
2022/01/01 00:19:34;;;;;;;0.60;0.60;;;11.60;99.90;;;;;;5093424;28;20044;-85
2022/01/01 00:22:02;;;;;;;1.30;1.30;;;11.50;99.90;;;;;;5079481;28;20051;-84
2022/01/01 00:24:28;;;;;;;1.25;1.15;;;11.60;99.90;;;;;;5096430;28;20131;-84
2022/01/01 00:26:53;;;;;;;4.70;2.38;;;11.60;99.90;;;;;;5096985;28;20466;-85
2022/01/01 00:29:20;;;;;;;3.25;0.82;;;11.50;99.90;;;;;;5079999;28;20052;-84
2022/01/01 00:31:46;;;;;;;14.70;2.05;;;11.50;99.90;;;;;;5080115;28;20056;-84
2022/01/01 00:34:11;;;;;;;1.15;0.68;;;11.60;99.90;;;;;;5097534;28;20047;-84
2022/01/01 00:36:38;;;;;;;2.67;1.42;;;11.50;99.90;;;;;;5080424;28;20102;-85
2022/01/01 00:39:04;;;;;;;0.70;0.40;;;11.50;99.90;;;;;;5097455;28;20040;-85
2022/01/01 00:41:30;;;;;;;1.40;1.30;;;11.40;99.90;;;;;;5080516;28;20048;-85
2022/01/01 00:43:55;;;;;;;2.20;1.33;;;11.60;99.90;;;;;;5079890;28;20043;-85
2022/01/01 00:46:21;;;;;;;0.93;0.93;;;11.50;99.90;;;;;;5096715;28;20079;-84
2022/01/01 00:48:47;;;;;;;0.38;0.38;;;11.40;99.90;;;;;;5096912;28;20379;-86
2022/01/01 00:51:12;;;;;;;3.70;2.33;;;11.40;99.90;;;;;;5080298;28;20055;-84
2022/01/01 00:53:38;;;;;;;4.60;1.70;;;11.70;99.90;;;;;;5096960;28;20058;-84
2022/01/01 00:56:04;;;;;;;8.55;2.78;;;11.40;99.90;;;;;;5079446;28;20040;-84
2022/01/01 00:58:30;;;;;;;2.15;1.55;;;11.40;99.90;;;;;;5079327;28;20044;-84
2022/01/01 01:00:55;;;;;;;2.55;2.08;;;11.50;99.90;;;;;;5079193;28;20498;-85
2022/01/01 01:03:21;;;;;;;2.20;1.38;;;11.60;99.90;;;;;;5080948;28;20085;-84
2022/01/01 01:05:47;;;;;;;4.68;2.20;;;11.40;99.90;;;;;;5101292;27;20036;-84
2022/01/01 01:08:16;;;;;;;1.77;1.50;;;11.50;99.90;;;;;;5119853;27;20483;-85
2022/01/01 01:10:47;;;;;;;1.45;1.33;;;11.40;99.90;;;;;;5119926;27;20043;-85
2022/01/01 01:13:15;;;;;;;3.50;2.30;;;11.40;99.90;;;;;;5137025;27;20055;-85
2022/01/01 01:15:42;;;;;;;3.92;2.50;;;11.40;99.90;;;;;;5136987;27;20054;-84
2022/01/01 01:18:07;;;;;;;2.25;2.08;;;11.40;99.90;;;;;;5137048;27;20038;-85
2022/01/01 01:20:33;;;;;;;5.00;2.78;;;11.40;99.90;;;;;;5119641;27;20180;-84
2022/01/01 01:22:59;;;;;;;2.60;2.05;;;11.40;99.90;;;;;;5119039;27;20047;-85
2022/01/01 01:25:29;;;;;;;2.60;1.95;;;11.40;99.90;;;;;;5136807;27;20046;-84
2022/01/01 01:27:55;;;;;;;4.38;3.22;;;11.40;99.90;;;;;;5120445;27;20054;-85
2022/01/01 01:30:22;;;;;;;4.43;3.67;;;11.40;99.90;;;;;;5137761;27;20466;-84
2022/01/01 01:32:48;;;;;;;2.25;2.08;;;11.40;99.90;;;;;;5119424;27;20071;-84
2022/01/01 01:35:14;;;;;;;2.40;1.23;;;11.30;99.90;;;;;;5137369;27;20043;-84
2022/01/01 01:37:40;;;;;;;4.72;3.08;;;11.40;99.90;;;;;;5119731;27;20108;-85
2022/01/01 01:40:07;;;;;;;6.57;2.25;;;11.30;99.90;;;;;;5119531;27;20043;-85
2022/01/01 01:42:34;;;;;;;3.92;3.45;;;11.40;99.90;;;;;;5136235;27;20035;-85
2022/01/01 01:45:03;;;;;;;2.60;1.27;;;11.40;99.90;;;;;;5136262;27;20051;-84
2022/01/01 01:47:35;;;;;;;2.13;1.98;;;11.40;99.90;;;;;;5136245;27;20126;-84
2022/01/01 01:50:05;;;;;;;2.08;1.92;;;11.30;99.90;;;;;;5136665;27;20043;-84
2022/01/01 01:52:33;;;;;;;3.08;1.98;;;11.40;99.90;;;;;;5118958;27;20050;-85
2022/01/01 01:55:03;;;;;;;2.50;1.05;;;11.40;99.90;;;;;;5118985;27;20050;-85
2022/01/01 01:57:30;;;;;;;1.02;0.98;;;11.40;99.90;;;;;;5136297;27;20050;-84
2022/01/01 01:59:56;;;;;;;0.60;0.57;;;11.40;99.90;;;;;;5119060;27;20047;-85
2022/01/01 02:02:22;;;;;;;2.55;1.20;;;11.50;99.90;;;;;;5118503;27;20043;-85
2022/01/01 02:04:48;;;;;;;1.40;1.40;;;11.40;99.90;;;;;;5136195;27;20039;-84
2022/01/01 02:07:14;;;;;;;0.40;0.38;;;11.40;99.90;;;;;;5105560;27;20056;-84
2022/01/01 02:09:40;;;;;;;1.90;1.33;;;11.40;99.90;;;;;;5094774;28;20490;-84
2022/01/01 02:12:08;;;;;;;0.55;0.55;;;11.40;99.90;;;;;;5077878;28;20048;-85
2022/01/01 02:17:28;;;;;;;1.85;1.25;;;11.30;99.90;;;;;;5094726;28;20075;-85
2022/01/01 02:19:59;;;;;;;1.55;1.45;;;11.20;99.90;;;;;;5077518;28;20055;-84
2022/01/01 02:22:27;;;;;;;0.93;0.85;;;11.20;99.90;;;;;;5094538;28;20488;-84
2022/01/01 02:24:53;;;;;;;2.58;1.60;;;11.20;99.90;;;;;;5077712;28;20083;-84
2022/01/01 02:27:19;;;;;;;1.50;1.40;;;11.20;99.90;;;;;;5077437;28;20044;-85
2022/01/01 02:29:45;;;;;;;1.40;0.55;;;11.20;99.90;;;;;;5077564;28;20059;-84
2022/01/01 02:32:13;;;;;;;0.55;0.55;;;11.20;99.90;;;;;;5094458;28;20040;-84
2022/01/01 02:34:40;;;;;;;2.85;1.33;;;11.10;99.90;;;;;;5077620;28;20056;-84
2022/01/01 02:37:06;;;;;;;1.60;1.50;;;11.10;99.90;;;;;;5093904;28;20052;-85
2022/01/01 02:39:32;;;;;;;3.30;0.90;;;11.10;99.90;;;;;;5094206;28;20043;-84
2022/01/01 02:41:57;;;;;;;4.32;1.80;;;11.10;99.90;;;;;;5077627;28;20099;-85
2022/01/01 02:44:25;;;;;;;2.00;1.42;;;11.10;99.90;;;;;;5093698;28;20127;-84
2022/01/01 02:46:55;;;;;;;3.05;1.15;;;11.10;99.90;;;;;;5077212;28;20044;-84
2022/01/01 02:49:20;;;;;;;1.50;1.35;;;11.20;99.90;;;;;;5093946;28;20036;-84
2022/01/01 02:51:46;;;;;;;2.30;1.50;;;11.10;99.90;;;;;;5094608;28;20446;-84
2022/01/01 02:54:12;;;;;;;2.40;2.20;;;11.20;99.90;;;;;;5077039;28;20083;-84
2022/01/01 02:56:38;;;;;;;1.88;1.33;;;11.20;99.90;;;;;;5077218;28;20059;-85
2022/01/01 02:59:04;;;;;;;0.32;0.32;;;11.20;99.90;;;;;;5093653;28;20500;-85
2022/01/01 03:01:30;;;;;;;8.65;2.45;;;11.30;99.90;;;;;;5076972;28;20052;-84
2022/01/01 03:03:56;;;;;;;2.15;1.88;;;11.30;99.90;;;;;;5076620;28;20047;-85
2022/01/01 03:06:21;;;;;;;6.00;1.80;;;11.30;99.90;;;;;;5076457;28;20399;-84
2022/01/01 03:08:52;;;;;;;1.10;1.10;;;11.30;99.90;;;;;;5076907;28;20055;-84
2022/01/01 03:11:18;;;;;;;1.48;1.40;;;11.30;99.90;;;;;;5093702;28;20518;-84
2022/01/01 03:13:44;;;;;;;2.83;1.48;;;11.50;99.90;;;;;;5076590;28;20044;-84
2022/01/01 03:16:10;;;;;;;18.55;4.40;;;11.30;99.90;;;;;;5093623;28;20099;-85
2022/01/01 03:18:36;;;;;;;1.17;1.08;;;11.40;99.90;;;;;;5093510;28;20044;-85
2022/01/01 03:21:02;;;;;;;9.23;2.13;;;11.30;99.90;;;;;;5093761;28;20093;-84
2022/01/01 03:23:28;;;;;;;4.55;3.17;;;11.40;99.90;;;;;;5093475;28;20435;-85
2022/01/01 03:25:56;;;;;;;0.50;0.50;;;11.30;99.90;;;;;;5076681;28;20135;-84
2022/01/01 03:28:22;;;;;;;5.03;1.85;;;11.40;99.90;;;;;;5093570;28;20037;-85
2022/01/01 03:30:48;;;;;;;2.35;0.70;;;11.40;99.90;;;;;;5076411;28;20130;-85
2022/01/01 03:33:14;;;;;;;3.38;1.38;;;11.40;99.90;;;;;;5093282;28;20054;-84
2022/01/01 03:35:40;;;;;;;2.28;1.50;;;11.40;99.90;;;;;;5076650;28;20098;-85
2022/01/01 03:38:05;;;;;;;2.88;2.28;;;11.40;99.90;;;;;;5076191;28;20044;-85
2022/01/01 03:40:31;;;;;;;5.68;2.05;;;11.40;99.90;;;;;;5092902;28;20051;-85
2022/01/01 03:42:57;;;;;;;2.60;2.03;;;11.30;99.90;;;;;;5076440;28;20104;-85
2022/01/01 03:45:22;;;;;;;1.65;1.00;;;11.40;99.90;;;;;;5093082;28;20055;-84
2022/01/01 03:47:48;;;;;;;0.30;0.30;;;11.40;99.90;;;;;;5075975;28;20134;-84
2022/01/01 03:50:14;;;;;;;2.38;1.65;;;11.40;99.90;;;;;;5093085;28;20131;-85
2022/01/01 03:52:44;;;;;;;1.83;1.73;;;11.50;99.90;;;;;;5093117;28;20044;-85
2022/01/01 03:55:11;;;;;;;5.78;3.10;;;11.40;99.90;;;;;;5075911;28;20637;-84
2022/01/01 03:57:37;;;;;;;3.88;2.60;;;11.40;99.90;;;;;;5075854;28;20047;-84
2022/01/01 04:00:06;;;;;;;3.80;1.13;;;11.40;99.90;;;;;;5092550;28;20040;-85
2022/01/01 04:02:32;;;;;;;0.50;0.50;;;11.40;99.90;;;;;;5075976;28;20136;-84
2022/01/01 04:04:58;;;;;;;2.70;1.52;;;11.40;99.90;;;;;;5076040;28;20048;-84
2022/01/01 04:07:24;;;;;;;2.67;0.93;;;11.40;99.90;;;;;;5075702;28;20080;-84
2022/01/01 04:09:50;;;;;;;1.30;1.20;;;11.40;99.90;;;;;;5075623;28;20056;-84
2022/01/01 04:12:15;;;;;;;1.50;0.85;;;11.40;99.90;;;;;;5075810;28;20043;-84
2022/01/01 04:14:42;;;;;;;1.63;0.85;;;11.40;99.90;;;;;;5092710;28;20134;-85
2022/01/01 04:17:09;;;;;;;0.63;0.63;;;11.40;99.90;;;;;;5076126;28;20040;-84
2022/01/01 04:19:39;;;;;;;3.88;2.03;;;11.40;99.90;;;;;;5092611;28;20051;-84
2022/01/01 04:22:13;;;;;;;2.85;2.30;;;11.40;99.90;;;;;;5092655;28;20395;-85
2022/01/01 04:24:40;;;;;;;11.90;2.75;;;11.40;99.90;;;;;;5075817;28;20047;-84
2022/01/01 04:27:07;;;;;;;1.45;1.33;;;11.40;99.90;;;;;;5075625;28;20063;-84
2022/01/01 04:29:33;;;;;;;3.45;2.80;;;11.40;99.90;;;;;;5093485;28;20155;-85
2022/01/01 04:32:00;;;;;;;4.68;2.70;;;11.40;99.90;;;;;;5075980;28;20048;-85
2022/01/01 04:34:26;;;;;;;2.65;1.67;;;11.40;99.90;;;;;;5076220;28;20052;-85
2022/01/01 04:37:05;;;;;;;2.05;1.10;;;11.40;99.90;;;;;;5092745;28;20051;-85
2022/01/01 04:39:31;;;;;;;1.48;1.10;;;11.40;99.90;;;;;;5076008;28;20069;-84
2022/01/01 04:41:56;;;;;;;0.75;0.68;;;11.40;99.90;;;;;;5075948;28;20518;-84
2022/01/01 04:44:22;;;;;;;1.52;1.42;;;11.40;99.90;;;;;;5075201;28;20048;-84
2022/01/01 04:46:48;;;;;;;4.90;1.27;;;11.40;99.90;;;;;;5075662;28;20044;-84
2022/01/01 04:49:14;;;;;;;0.80;0.80;;;11.50;99.90;;;;;;5092456;28;20044;-84
2022/01/01 04:51:39;;;;;;;0.68;0.68;;;11.40;99.90;;;;;;5092425;28;20079;-84
2022/01/01 04:54:12;;;;;;;1.58;0.70;;;11.40;99.90;;;;;;5075287;28;20483;-84
2022/01/01 04:56:43;;;;;;;1.17;0.95;;;11.40;99.90;;;;;;5092386;28;20048;-85
2022/01/01 04:59:09;;;;;;;5.53;1.05;;;11.40;99.90;;;;;;5076442;28;20143;-85
2022/01/01 05:01:35;;;;;;;0.30;0.30;;;11.40;99.90;;;;;;5075649;28;20579;-84
2022/01/01 05:04:00;;;;;;;5.05;2.20;;;11.40;99.90;;;;;;5075197;28;20523;-84
2022/01/01 05:06:26;;;;;;;1.08;0.22;;;11.40;99.90;;;;;;5094026;28;20056;-84
2022/01/01 05:08:52;;;;;;;0.60;0.38;;;11.40;99.90;;;;;;5077523;28;20044;-85
2022/01/01 05:11:18;;;;;;;3.58;1.35;;;11.40;99.90;;;;;;5079308;28;20040;-85
2022/01/01 05:13:43;;;;;;;2.38;0.95;;;11.30;99.90;;;;;;5096830;28;20043;-84
2022/01/01 05:16:14;;;;;;;1.67;1.35;;;11.40;99.90;;;;;;5079459;28;20368;-85
2022/01/01 05:18:40;;;;;;;0.75;0.35;;;11.40;99.90;;;;;;5095998;28;20051;-85
2022/01/01 05:21:06;;;;;;;1.23;1.23;;;11.40;99.90;;;;;;5095870;28;20048;-85
2022/01/01 05:23:32;;;;;;;1.48;0.50;;;11.50;99.90;;;;;;5095466;28;20036;-85
2022/01/01 05:25:57;;;;;;;0.88;0.77;;;11.50;99.90;;;;;;5078862;28;20044;-85
2022/01/01 05:28:23;;;;;;;1.13;0.90;;;11.40;99.90;;;;;;5095861;28;20040;-85
2022/01/01 05:30:49;;;;;;;0.55;0.32;;;11.40;99.90;;;;;;5095786;28;20040;-85
2022/01/01 05:33:15;;;;;;;1.30;1.08;;;11.50;99.90;;;;;;5095671;28;20048;-84
2022/01/01 05:35:41;;;;;;;2.08;1.75;;;11.50;99.90;;;;;;5095661;28;20047;-84
2022/01/01 05:38:07;;;;;;;1.10;0.75;;;11.50;99.90;;;;;;5078758;28;20147;-85
2022/01/01 05:40:33;;;;;;;0.68;0.68;;;11.50;99.90;;;;;;5078466;28;20497;-85
2022/01/01 05:42:58;;;;;;;3.17;2.30;;;11.50;99.90;;;;;;5095390;28;20036;-85
2022/01/01 05:45:24;;;;;;;2.88;1.58;;;11.50;99.90;;;;;;5095263;28;20040;-85
2022/01/01 05:47:50;;;;;;;1.42;1.23;;;11.50;99.90;;;;;;5078407;28;20048;-84
2022/01/01 05:50:17;;;;;;;0.90;0.85;;;11.50;99.90;;;;;;5095344;28;20036;-85
2022/01/01 05:52:43;;;;;;;1.70;1.10;;;11.50;99.90;;;;;;5078377;28;20116;-84
2022/01/01 05:55:09;;;;;;;3.00;1.45;;;11.40;99.90;;;;;;5095150;28;20479;-84
2022/01/01 05:57:35;;;;;;;0.63;0.63;;;11.50;99.90;;;;;;5095208;28;20063;-85
2022/01/01 06:00:02;;;;;;;0.60;0.60;;;11.50;99.90;;;;;;5095193;28;20477;-84
2022/01/01 06:02:28;;;;;;;0.40;0.40;;;11.50;99.90;;;;;;5078058;28;20056;-85
2022/01/01 06:04:53;;;;;;;5.35;1.05;;;11.50;99.90;;;;;;5078407;28;20069;-85
2022/01/01 06:07:19;;;;;;;0.95;0.95;;;11.50;99.90;;;;;;5079823;28;20055;-84
2022/01/01 06:09:45;;;;;;;1.92;0.90;;;11.50;99.90;;;;;;5078726;28;20059;-85
2022/01/01 06:12:11;;;;;;;0.75;0.75;;;11.50;99.90;;;;;;5094913;28;20106;-84
2022/01/01 06:14:37;;;;;;;1.08;0.73;;;11.50;99.90;;;;;;5094966;28;20509;-85
2022/01/01 06:17:03;;;;;;;0.40;0.40;;;11.50;99.90;;;;;;5078037;28;20059;-84
2022/01/01 06:19:28;;;;;;;0.13;0.13;;;11.50;99.90;;;;;;5077087;28;20124;-84
2022/01/01 06:21:54;;;;;;;0.40;0.22;;;11.50;99.90;;;;;;5078232;28;20097;-85
2022/01/01 06:24:20;;;;;;;0.45;0.45;;;11.50;99.90;;;;;;5094505;28;20463;-85
2022/01/01 06:26:45;;;;;;;0.20;0.20;;;11.50;99.90;;;;;;5095085;28;20087;-85
2022/01/01 06:29:11;;;;;;;0.00;0.00;;;11.50;99.90;;;;;;5094230;28;20091;-84
2022/01/01 06:31:37;;;;;;;0.22;0.22;;;11.40;99.90;;;;;;5077538;28;20051;-84
2022/01/01 06:34:02;;;;;;;0.52;0.38;;;11.50;99.90;;;;;;5076926;28;20062;-84
2022/01/01 06:36:28;;;;;;;0.45;0.45;;;11.60;99.90;;;;;;5077339;28;20109;-84
2022/01/01 06:38:54;;;;;;;0.52;0.00;;;11.50;99.90;;;;;;5094618;28;20384;-84
2022/01/01 06:41:20;;;;;;;0.10;0.10;;;11.60;99.90;;;;;;5077477;28;20150;-84
2022/01/01 06:43:46;;;;;;;0.30;0.30;;;11.50;99.90;;;;;;5094294;28;20123;-84
2022/01/01 06:46:12;;;;;;;0.47;0.30;;;11.60;99.90;;;;;;5078051;28;20495;-84
2022/01/01 06:48:37;;;;;;;1.63;0.10;;;11.50;99.90;;;;;;5078035;28;20134;-84
2022/01/01 06:51:03;;;;;;;0.10;0.10;;;11.60;99.90;;;;;;5077721;28;20052;-84
2022/01/01 06:53:29;;;;;;;0.20;0.20;;;11.50;99.90;;;;;;5077708;28;20044;-85
2022/01/01 06:55:55;;;;;;;0.20;0.20;;;11.50;99.90;;;;;;5094123;28;20043;-84
2022/01/01 06:58:21;;;;;;;0.20;0.20;;;11.50;99.90;;;;;;5077610;28;20515;-84
2022/01/01 07:00:46;;;;;;;0.60;0.60;;;11.50;99.90;;;;;;5094037;28;20055;-84
2022/01/01 07:03:12;;;;;;;0.28;0.28;;;11.50;99.90;;;;;;5093631;28;20399;-84
2022/01/01 07:05:38;;;;;;;0.32;0.10;;;11.50;99.90;;;;;;5076879;28;20048;-84
2022/01/01 07:08:04;;;;;;;0.10;0.10;;;11.50;99.90;;;;;;5076030;28;20059;-84
2022/01/01 07:10:29;;;;;;;0.20;0.20;;;11.50;99.90;;;;;;5093848;28;20048;-84
2022/01/01 07:12:55;;;;;;;0.00;0.00;;;11.50;99.90;;;;;;5093794;28;20055;-86
2022/01/01 07:15:21;;;;;;;2.05;1.20;;;11.50;99.90;;;;;;5100631;28;20384;-87
2022/01/01 07:17:47;;;;;;;0.05;0.05;;;11.50;99.90;;;;;;5083875;28;20048;-87
2022/01/01 07:20:12;;;;;;;0.00;0.00;;;11.50;99.90;;;;;;5104237;28;20048;-87
2022/01/01 07:22:43;;;;;;;0.00;0.00;;;11.50;99.90;;;;;;5102497;28;20036;-87
2022/01/01 07:25:09;;;;;;;0.52;0.52;;;11.50;99.90;;;;;;5086320;28;20044;-87
2022/01/01 07:27:35;;;;;;;0.55;0.52;;;11.60;99.90;;;;;;5084284;28;20448;-86
2022/01/01 07:30:02;;;;;;;0.52;0.52;;;11.50;99.90;;;;;;5084939;28;20058;-86
2022/01/01 07:32:28;;;;;;;0.10;0.10;;;11.50;99.90;;;;;;5097199;28;20079;-86
2022/01/01 07:34:55;;;;;;;1.27;0.30;;;11.50;99.90;;;;;;5084006;28;20430;-87
2022/01/01 07:37:21;;;;;;;1.88;0.10;;;11.50;99.90;;;;;;5085401;28;20048;-88
2022/01/01 07:39:47;;;;;;;0.10;0.10;;;11.50;99.90;;;;;;5084964;28;20135;-88
2022/01/01 07:42:12;;;;;;;0.38;0.38;;;11.50;99.90;;;;;;5100895;28;20059;-88
2022/01/01 07:44:39;;;;;;;0.70;0.47;;;11.60;99.90;;;;;;5083271;28;20119;-87
2022/01/01 07:47:05;;;;;;;0.47;0.47;;;11.60;99.90;;;;;;5103695;28;20435;-85
2022/01/01 07:49:31;;;;;;;0.30;0.30;;;11.60;99.90;;;;;;5103820;28;20424;-86
2022/01/01 07:51:57;;;;;;;0.52;0.20;;;11.60;99.90;;;;;;5081982;28;20138;-87
2022/01/01 07:54:23;;;;;;;1.33;0.63;;;11.50;99.90;;;;;;5080482;28;20040;-87
2022/01/01 07:56:48;;;;;;;0.40;0.40;;;11.70;99.90;;;;;;5086909;28;20082;-87
2022/01/01 07:59:17;;;;;;;1.25;0.63;;;11.70;99.90;;;;;;5106700;28;20043;-90
2022/01/01 08:01:43;;;;;;;0.57;0.52;;;11.60;99.90;;;;;;5090353;28;20044;-85
2022/01/01 08:04:09;;;;;;;0.75;0.75;;;11.60;99.90;;;;;;5096093;28;20441;-85
2022/01/01 08:06:35;;;;;;;0.50;0.50;;;11.60;99.90;;;;;;5124023;27;20077;-86
2022/01/01 08:09:01;;;;;;;0.85;0.55;;;11.60;99.90;;;;;;5137235;27;20051;-86
2022/01/01 08:11:27;;;;;;;1.55;0.63;;;11.60;99.90;;;;;;5137526;27;20055;-86
2022/01/01 08:13:56;;;;;;;0.98;0.75;;;11.70;99.90;;;;;;5136599;27;20046;-85
2022/01/01 08:16:22;;;;;;;3.63;0.47;;;11.70;99.90;;;;;;5154345;27;20462;-86
2022/01/01 08:18:48;;;;;;;1.27;1.05;;;11.80;99.90;;;;;;5154138;27;20197;-86
2022/01/01 08:21:14;;;;;;;0.63;0.22;;;11.80;99.90;;;;;;5137153;27;20053;-86
2022/01/01 08:23:39;;;;;;;0.52;0.52;;;11.90;99.90;;;;;;5136570;27;20402;-86
2022/01/01 08:26:05;;;;;;;2.53;0.52;;;12.00;99.90;;;;;;5154002;27;20078;-86
2022/01/01 08:28:31;;;;;;;0.40;0.40;;;11.80;99.90;;;;;;5137311;27;20053;-86
2022/01/01 08:30:57;;;;;;;0.98;0.47;;;11.80;99.90;;;;;;5136332;27;20077;-86
2022/01/01 08:33:23;;;;;;;1.33;0.60;;;12.00;99.90;;;;;;5154002;27;20042;-86
2022/01/01 08:35:49;;;;;;;0.32;0.10;;;11.90;99.90;;;;;;5136661;27;20047;-86
2022/01/01 08:38:15;;;;;;;0.20;0.20;;;11.90;99.90;;;;;;5153903;27;20046;-86
2022/01/01 08:40:41;;;;;;;0.70;0.45;;;11.90;99.90;;;;;;5136978;27;20142;-87
2022/01/01 08:43:06;;;;;;;0.45;0.45;;;11.90;99.90;;;;;;5156535;27;20134;-86
2022/01/01 08:45:35;;;;;;;0.28;0.25;;;12.00;99.90;;;;;;5120392;27;20039;-86
2022/01/01 08:48:00;;;;;;;0.10;0.10;;;12.10;99.90;;;;;;5137509;27;20051;-86
2022/01/01 08:50:26;;;;;;;0.98;0.68;;;11.90;99.90;;;;;;5138143;27;20133;-86
2022/01/01 08:52:52;;;;;;;6.32;2.80;;;12.10;99.90;;;;;;5137506;27;20039;-86
2022/01/01 08:55:17;;;;;;;0.60;0.25;;;12.10;99.90;;;;;;5120290;27;20117;-86
2022/01/01 08:57:43;;;;;;;1.83;1.45;;;12.10;99.90;;;;;;5137376;27;20047;-86
2022/01/01 09:00:11;;;;;;;0.82;0.65;;;12.10;99.90;;;;;;5120377;27;20142;-86
2022/01/01 09:02:38;;;;;;;1.85;1.27;;;12.20;99.90;;;;;;5136780;27;20081;-86
2022/01/01 09:05:05;;;;;;;0.28;0.28;;;12.30;99.90;;;;;;5120118;27;20088;-86
2022/01/01 09:07:30;;;;;;;0.82;0.75;;;12.20;99.90;;;;;;5136927;27;20138;-86
2022/01/01 09:09:58;;;;;;;0.20;0.20;;;12.20;99.90;;;;;;5119974;27;20090;-86
2022/01/01 09:12:27;;;;;;;0.10;0.10;;;12.30;99.90;;;;;;5119823;27;20039;-86
2022/01/01 09:14:53;;;;;;;0.28;0.17;;;12.20;99.90;;;;;;5137038;27;20043;-86
2022/01/01 09:17:20;;;;;;;0.25;0.25;;;12.30;99.90;;;;;;5136718;27;20375;-86
2022/01/01 09:19:45;;;;;;;0.52;0.47;;;12.30;99.90;;;;;;5119795;27;20046;-86
2022/01/01 09:22:11;;;;;;;0.57;0.57;;;12.30;99.90;;;;;;5119597;27;20078;-86
2022/01/01 09:24:37;;;;;;;1.25;1.13;;;12.30;99.90;;;;;;5120920;27;20497;-88
2022/01/01 09:27:06;;;;;;;0.00;0.00;;;12.30;99.90;;;;;;5155161;27;20039;-88
2022/01/01 09:29:32;;;;;;;0.17;0.17;;;12.30;99.90;;;;;;5142321;27;20103;-89
2022/01/01 09:31:58;;;;;;;0.82;0.50;;;12.40;99.90;;;;;;5140144;27;20456;-86
2022/01/01 09:34:24;;;;;;;0.47;0.47;;;12.50;99.90;;;;;;5157314;27;20047;-86
2022/01/01 09:36:50;;;;;;;0.00;0.00;;;12.50;99.90;;;;;;5140151;27;20624;-86
2022/01/01 09:39:18;;;;;;;0.20;0.20;;;12.70;99.90;;;;;;5139776;27;20371;-85
2022/01/01 09:41:44;;;;;;;1.27;0.40;;;12.60;99.90;;;;;;5139973;27;20039;-84
2022/01/01 09:44:16;;;;;;;0.20;0.10;;;12.70;99.90;;;;;;5139623;27;20046;-84
2022/01/01 09:46:44;;;;;;;1.38;0.70;;;12.80;99.90;;;;;;5139903;27;20051;-84
2022/01/01 09:49:13;;;;;;;3.30;0.93;;;12.90;99.90;;;;;;5140023;27;20039;-84
2022/01/01 09:51:41;;;;;;;0.95;0.95;;;12.90;99.90;;;;;;5129863;27;20039;-84
2022/01/01 09:54:07;;;;;;;0.73;0.73;;;13.20;99.90;;;;;;5118437;27;20058;-84
2022/01/01 09:56:34;;;;;;;0.82;0.82;;;13.40;99.90;;;;;;5119949;27;20130;-84
2022/01/01 09:59:00;;;;;;;0.57;0.40;;;13.60;99.90;;;;;;5119236;27;20046;-84
2022/01/01 10:01:25;;;;;;;1.30;0.60;;;13.80;99.90;;;;;;5136492;27;20043;-84
2022/01/01 10:03:52;;;;;;;0.32;0.28;;;14.00;99.90;;;;;;5118815;27;20386;-84
2022/01/01 10:06:22;;;;;;;6.30;1.27;;;14.40;99.90;;;;;;5135994;27;20043;-84
2022/01/01 10:09:00;;;;;;;0.43;0.43;;;14.70;99.90;;;;;;5136853;27;20070;-84
2022/01/01 10:11:27;;;;;;;0.20;0.20;;;14.70;99.90;;;;;;5119667;27;20055;-84
2022/01/01 10:13:54;;;;;;;1.48;0.75;;;14.40;99.90;;;;;;5141326;27;20046;-84
2022/01/01 10:16:21;;;;;;;0.28;0.25;;;14.20;99.90;;;;;;5139489;27;20081;-84
2022/01/01 10:18:51;;;;;;;0.10;0.10;;;14.00;99.90;;;;;;5139185;27;20054;-84
2022/01/01 10:21:19;;;;;;;0.10;0.10;;;13.80;99.90;;;;;;5138986;27;20143;-84
2022/01/01 10:23:49;;;;;;;1.92;0.65;;;13.70;99.90;;;;;;5156437;27;20047;-84
2022/01/01 10:29:26;;;;;;;0.57;0.57;;;13.50;99.90;;;;;;5156420;27;20542;-84
2022/01/01 10:32:10;;;;;;;0.25;0.25;;;13.40;99.90;;;;;;5156000;27;20512;-85
2022/01/01 10:34:42;;;;;;;0.13;0.13;;;13.30;99.90;;;;;;5139284;27;20547;-84
2022/01/01 10:37:08;;;;;;;0.08;0.08;;;13.30;99.90;;;;;;5156179;27;20134;-84
2022/01/01 10:39:48;;;;;;;2.70;0.28;;;13.20;99.90;;;;;;5156172;27;20082;-84
2022/01/01 10:42:13;;;;;;;0.03;0.03;;;13.30;99.90;;;;;;5156695;27;20406;-84
2022/01/01 10:44:39;;;;;;;0.93;0.30;;;13.10;99.90;;;;;;5138548;27;20035;-84
2022/01/01 10:47:25;;;;;;;0.10;0.00;;;13.10;99.90;;;;;;5156726;27;20043;-84
2022/01/01 10:50:14;;;;;;;0.43;0.38;;;13.10;99.90;;;;;;5138557;27;20089;-84
2022/01/01 10:52:37;;;;;;;0.85;0.10;;;13.00;99.90;;;;;;5155679;27;20093;-84
2022/01/01 10:55:05;;;;;;;0.22;0.08;;;13.10;99.90;;;;;;5138479;27;20082;-84
2022/01/01 10:57:37;;;;;;;0.10;0.10;;;13.00;99.90;;;;;;5138499;27;20049;-84
2022/01/01 11:00:21;;;;;;;0.00;0.00;;;13.00;99.90;;;;;;5138423;27;20057;-84
2022/01/01 11:02:52;;;;;;;1.15;0.73;;;13.00;99.90;;;;;;5155606;27;20057;-84
2022/01/01 11:05:32;;;;;;;4.65;0.52;;;12.90;99.90;;;;;;5155356;27;20086;-85
2022/01/01 11:07:58;;;;;;;0.20;0.20;;;13.00;99.90;;;;;;5136714;27;20533;-85
2022/01/01 11:10:25;;;;;;;0.20;0.20;;;13.00;99.90;;;;;;5137735;27;20054;-84
2022/01/01 11:12:54;;;;;;;0.30;0.20;;;13.00;99.90;;;;;;5139005;27;20043;-84
2022/01/01 11:15:20;;;;;;;1.75;0.40;;;13.10;99.90;;;;;;5137647;27;20063;-84
2022/01/01 11:17:47;;;;;;;0.25;0.25;;;13.10;99.90;;;;;;5138013;27;20038;-85
2022/01/01 11:20:14;;;;;;;0.13;0.13;;;13.00;99.90;;;;;;5155515;27;20058;-84
2022/01/01 11:22:44;;;;;;;0.10;0.10;;;13.00;99.90;;;;;;5137932;27;20134;-84
2022/01/01 11:25:10;;;;;;;0.70;0.70;;;13.00;99.90;;;;;;5154760;27;20517;-85
2022/01/01 11:27:36;;;;;;;2.47;0.93;;;12.90;99.90;;;;;;5137542;27;20042;-84
2022/01/01 11:30:11;;;;;;;0.30;0.30;;;13.00;99.90;;;;;;5137469;27;20439;-84
2022/01/01 11:32:37;;;;;;;0.70;0.00;;;12.90;99.90;;;;;;5137605;27;20158;-84
2022/01/01 11:35:04;;;;;;;0.88;0.50;;;13.00;99.90;;;;;;5138043;27;20078;-84
2022/01/01 11:37:59;;;;;;;0.15;0.15;;;13.00;99.90;;;;;;5155254;27;20047;-84
2022/01/01 11:40:26;;;;;;;0.10;0.10;;;12.90;99.90;;;;;;5154197;27;20151;-84
2022/01/01 11:42:52;;;;;;;0.73;0.52;;;12.90;99.90;;;;;;5137809;27;20069;-84
2022/01/01 11:45:41;;;;;;;0.00;0.00;;;12.90;99.90;;;;;;5154882;27;20039;-84
2022/01/01 11:48:31;;;;;;;0.25;0.25;;;12.90;99.90;;;;;;5138295;27;20111;-84
2022/01/01 11:51:18;;;;;;;0.17;0.17;;;13.00;99.90;;;;;;5154844;27;20043;-84
2022/01/01 11:54:08;;;;;;;0.10;0.10;;;13.00;99.90;;;;;;5155617;27;20054;-84
2022/01/01 11:56:49;;;;;;;0.00;0.00;;;13.00;99.90;;;;;;5154728;27;20046;-84
2022/01/01 11:59:37;;;;;;;0.47;0.00;;;13.00;99.90;;;;;;5154374;27;20497;-84
2022/01/01 12:02:18;;;;;;;0.13;0.13;;;13.00;99.90;;;;;;5155488;27;20102;-84
2022/01/01 12:04:46;;;;;;;0.20;0.20;;;13.00;99.90;;;;;;5154140;27;20046;-85
2022/01/01 12:07:11;;;;;;;0.38;0.38;;;13.00;99.90;;;;;;5137554;27;20054;-84
2022/01/01 12:10:11;;;;;;;2.28;1.23;;;13.00;99.90;;;;;;5155341;27;20510;-84
2022/01/01 12:12:51;;;;;;;0.05;0.05;;;13.10;99.90;;;;;;5137564;27;20442;-84
2022/01/01 12:15:19;;;;;;;0.10;0.10;;;13.10;99.90;;;;;;5136881;27;20405;-84
2022/01/01 12:17:50;;;;;;;0.22;0.22;;;13.20;99.90;;;;;;5137036;27;20051;-84
2022/01/01 12:20:18;;;;;;;0.00;0.00;;;13.20;99.90;;;;;;5136700;27;20110;-84
2022/01/01 12:22:45;;;;;;;0.00;0.00;;;13.30;99.90;;;;;;5154045;27;20479;-83
2022/01/01 12:25:15;;;;;;;0.32;0.20;;;13.30;99.90;;;;;;5154131;27;20050;-83
2022/01/01 12:27:47;;;;;;;0.13;0.13;;;13.30;99.90;;;;;;5137295;27;20055;-83
2022/01/01 12:30:33;;;;;;;0.00;0.00;;;13.30;99.90;;;;;;5155193;27;20058;-83
2022/01/01 12:32:59;;;;;;;0.63;0.63;;;13.20;99.90;;;;;;5137089;27;20493;-83
2022/01/01 12:35:49;;;;;;;1.10;0.75;;;13.20;99.90;;;;;;5154169;27;20049;-83
2022/01/01 12:38:21;;;;;;;0.05;0.05;;;13.20;99.90;;;;;;5137295;27;20043;-84
2022/01/01 12:40:58;;;;;;;2.53;0.65;;;13.10;99.90;;;;;;5136361;27;20054;-84
2022/01/01 12:43:25;;;;;;;0.90;0.00;;;13.10;99.90;;;;;;5154046;27;20043;-83
2022/01/01 12:45:52;;;;;;;1.38;0.45;;;13.10;99.90;;;;;;5136971;27;20408;-83
2022/01/01 12:48:32;;;;;;;0.15;0.15;;;13.10;99.90;;;;;;5153589;27;20085;-83
2022/01/01 12:51:00;;;;;;;0.00;0.00;;;13.10;99.90;;;;;;5137263;27;20448;-84
2022/01/01 12:53:27;;;;;;;0.00;0.00;;;13.10;99.90;;;;;;5154089;27;20107;-83